createdAt,value
2023-05-17T00:00:55.748Z,94158.50
2023-05-17T00:03:22.557Z,94163.19
2023-05-17T00:05:49.314Z,94165.22
2023-05-17T00:08:16.301Z,94157.81
2023-05-17T00:10:43.381Z,94162.50
2023-05-17T00:13:10.191Z,94162.16
2023-05-17T00:15:36.949Z,94162.09
2023-05-17T00:18:03.878Z,94166.25
2023-05-17T00:20:30.722Z,94162.69
2023-05-17T00:22:57.411Z,94166.66
2023-05-17T00:25:24.148Z,94162.41
2023-05-17T00:27:50.898Z,94169.38
2023-05-17T00:30:17.680Z,94168.22
2023-05-17T00:32:46.859Z,94172.50
2023-05-17T00:35:14.110Z,94175.63
2023-05-17T00:37:40.920Z,94171.59
2023-05-17T00:40:08.357Z,94176.72
2023-05-17T00:42:35.124Z,94166.16
2023-05-17T00:45:01.852Z,94172.84
2023-05-17T00:47:28.611Z,94170.72
2023-05-17T00:49:55.649Z,94171.13
2023-05-17T00:52:22.376Z,94169.59
2023-05-17T00:54:50.740Z,94176.19
2023-05-17T00:57:17.868Z,94163.22
2023-05-17T00:59:45.123Z,94164.44
2023-05-17T01:02:12.089Z,94167.16
2023-05-17T01:04:39.198Z,94167.75
2023-05-17T01:07:06.027Z,94170.44
2023-05-17T01:09:33.008Z,94170.38
2023-05-17T01:12:37.813Z,94176.69
2023-05-17T01:15:13.228Z,94176.75
2023-05-17T01:17:50.712Z,94182.88
2023-05-17T01:20:28.454Z,94186.53
2023-05-17T01:23:23.895Z,94181.41
2023-05-17T01:26:00.741Z,94189.59
2023-05-17T01:28:28.279Z,94179.84
2023-05-17T01:30:57.563Z,94187.94
2023-05-17T01:33:24.498Z,94184.69
2023-05-17T01:35:51.285Z,94195.66
2023-05-17T01:38:17.934Z,94195.34
2023-05-17T01:41:07.964Z,94198.97
2023-05-17T01:43:46.579Z,94193.88
2023-05-17T01:46:29.893Z,94201.31
2023-05-17T01:49:26.915Z,94192.25
2023-05-17T01:51:53.516Z,94191.59
2023-05-17T01:54:23.030Z,94195.78
2023-05-17T01:56:59.322Z,94201.72
2023-05-17T01:59:27.617Z,94193.16
2023-05-17T02:01:57.213Z,94201.97
2023-05-17T02:04:23.983Z,94197.19
2023-05-17T02:06:50.969Z,94209.88
2023-05-17T02:09:17.669Z,94210.59
2023-05-17T02:11:44.437Z,94218.03
2023-05-17T02:14:11.150Z,94205.97
2023-05-17T02:16:37.851Z,94212.47
2023-05-17T02:19:04.625Z,94211.47
2023-05-17T02:21:31.348Z,94206.41
2023-05-17T02:23:58.008Z,94211.84
2023-05-17T02:26:24.629Z,94204.91
2023-05-17T02:28:51.317Z,94212.22
2023-05-17T02:31:18.010Z,94211.69
2023-05-17T02:33:44.821Z,94214.66
2023-05-17T02:36:11.494Z,94213.88
2023-05-17T02:38:38.121Z,94221.75
2023-05-17T02:41:04.931Z,94208.75
2023-05-17T02:43:31.677Z,94213.28
2023-05-17T02:45:58.536Z,94215.84
2023-05-17T02:48:25.249Z,94208.75
2023-05-17T02:50:52.016Z,94209.53
2023-05-17T02:53:18.710Z,94215.56
2023-05-17T02:55:45.445Z,94210.34
2023-05-17T02:58:12.113Z,94211.09
2023-05-17T03:00:38.911Z,94209.59
2023-05-17T03:03:05.943Z,94217.66
2023-05-17T03:05:33.679Z,94215.13
2023-05-17T03:08:00.386Z,94219.81
2023-05-17T03:10:27.100Z,94215.16
2023-05-17T03:12:53.844Z,94219.75
2023-05-17T03:15:20.613Z,94222.47
2023-05-17T03:17:47.459Z,94221.91
2023-05-17T03:20:14.557Z,94222.38
2023-05-17T03:22:41.228Z,94219.19
2023-05-17T03:25:08.435Z,94222.25
2023-05-17T03:27:35.313Z,94230.72
2023-05-17T03:30:02.267Z,94227.88
2023-05-17T03:32:29.098Z,94225.34
2023-05-17T03:34:55.778Z,94226.63
2023-05-17T03:37:22.881Z,94225.59
2023-05-17T03:39:49.607Z,94227.50
2023-05-17T03:42:16.540Z,94229.00
2023-05-17T03:44:43.215Z,94230.63
2023-05-17T03:47:09.906Z,94236.44
2023-05-17T03:49:36.579Z,94234.59
2023-05-17T03:52:03.622Z,94235.81
2023-05-17T03:54:30.344Z,94235.53
2023-05-17T03:56:57.049Z,94241.75
2023-05-17T03:59:24.049Z,94240.28
2023-05-17T04:01:50.728Z,94236.44
2023-05-17T04:04:17.467Z,94240.00
2023-05-17T04:06:44.305Z,94246.09
2023-05-17T04:09:13.119Z,94247.38
2023-05-17T04:11:40.992Z,94249.66
2023-05-17T04:14:07.932Z,94253.56
2023-05-17T04:16:34.633Z,94251.00
2023-05-17T04:19:01.948Z,94257.22
2023-05-17T04:21:28.874Z,94258.78
2023-05-17T04:23:55.625Z,94257.88
2023-05-17T04:26:22.600Z,94259.28
2023-05-17T04:28:49.258Z,94257.75
2023-05-17T04:31:16.978Z,94261.09
2023-05-17T04:33:43.769Z,94263.94
2023-05-17T04:36:10.465Z,94257.09
2023-05-17T04:38:37.092Z,94261.91
2023-05-17T04:41:05.319Z,94264.88
2023-05-17T04:43:33.045Z,94272.44
2023-05-17T04:46:00.199Z,94269.41
2023-05-17T04:48:27.718Z,94271.41
2023-05-17T04:50:54.662Z,94275.47
2023-05-17T04:53:21.650Z,94279.00
2023-05-17T04:55:48.656Z,94284.31
2023-05-17T04:58:15.321Z,94283.63
2023-05-17T05:00:42.074Z,94286.97
2023-05-17T05:03:08.833Z,94292.41
2023-05-17T05:05:35.695Z,94281.88
2023-05-17T05:08:02.562Z,94280.38
2023-05-17T05:10:29.467Z,94282.59
2023-05-17T05:12:56.248Z,94281.88
2023-05-17T05:15:22.936Z,94281.88
2023-05-17T05:17:49.751Z,94286.41
2023-05-17T05:20:16.764Z,94288.56
2023-05-17T05:22:43.504Z,94285.81
2023-05-17T05:25:10.315Z,94294.00
2023-05-17T05:27:37.118Z,94298.72
2023-05-17T05:30:04.440Z,94298.59
2023-05-17T05:32:31.277Z,94299.38
2023-05-17T05:34:58.031Z,94301.56
2023-05-17T05:37:24.756Z,94302.25
2023-05-17T05:39:51.427Z,94304.56
2023-05-17T05:42:18.436Z,94303.47
2023-05-17T05:44:45.226Z,94300.41
2023-05-17T05:47:12.065Z,94307.56
2023-05-17T05:49:38.745Z,94309.03
2023-05-17T05:52:05.580Z,94306.78
2023-05-17T05:54:32.358Z,94303.22
2023-05-17T05:57:00.760Z,94307.41
2023-05-17T05:59:27.791Z,94303.22
2023-05-17T06:01:54.438Z,94300.84
2023-05-17T06:04:24.632Z,94306.09
2023-05-17T06:06:56.658Z,94312.53
2023-05-17T06:09:23.412Z,94297.72
2023-05-17T06:11:52.780Z,94304.16
2023-05-17T06:14:19.684Z,94309.16
2023-05-17T06:16:48.560Z,94305.88
2023-05-17T06:19:15.734Z,94314.22
2023-05-17T06:21:42.456Z,94315.59
2023-05-17T06:24:09.193Z,94314.16
2023-05-17T06:26:35.929Z,94312.66
2023-05-17T06:29:02.660Z,94309.13
2023-05-17T06:31:29.425Z,94308.34
2023-05-17T06:33:58.094Z,94311.13
2023-05-17T06:36:25.401Z,94314.59
2023-05-17T06:38:52.243Z,94312.59
2023-05-17T06:41:19.001Z,94308.91
2023-05-17T06:43:48.201Z,94316.88
2023-05-17T06:46:14.879Z,94311.75
2023-05-17T06:48:41.791Z,94318.25
2023-05-17T06:51:10.966Z,94313.81
2023-05-17T06:53:37.661Z,94311.53
2023-05-17T06:56:04.591Z,94324.47
2023-05-17T06:58:32.644Z,94310.81
2023-05-17T07:00:59.303Z,94317.88
2023-05-17T07:03:26.563Z,94327.47
2023-05-17T07:05:53.318Z,94326.31
2023-05-17T07:08:19.975Z,94330.09
2023-05-17T07:10:46.655Z,94332.09
2023-05-17T07:13:13.460Z,94323.66
2023-05-17T07:15:40.207Z,94335.91
2023-05-17T07:18:07.012Z,94331.69
2023-05-17T07:20:33.794Z,94334.53
2023-05-17T07:23:00.915Z,94333.84
2023-05-17T07:25:27.913Z,94332.91
2023-05-17T07:27:57.052Z,94333.63
2023-05-17T07:30:23.893Z,94332.53
2023-05-17T07:32:50.761Z,94341.19
2023-05-17T07:35:19.675Z,94337.13
2023-05-17T07:37:47.900Z,94343.19
2023-05-17T07:40:14.635Z,94344.72
2023-05-17T07:42:41.835Z,94330.91
2023-05-17T07:45:09.213Z,94343.94
2023-05-17T07:47:36.095Z,94339.00
2023-05-17T07:50:04.284Z,94345.22
2023-05-17T07:52:33.028Z,94328.53
2023-05-17T07:54:59.802Z,94346.88
2023-05-17T07:57:27.581Z,94339.56
2023-05-17T07:59:54.429Z,94343.03
2023-05-17T08:02:21.184Z,94338.94
2023-05-17T08:04:47.900Z,94348.25
2023-05-17T08:07:14.666Z,94348.75
2023-05-17T08:09:44.213Z,94346.88
2023-05-17T08:12:12.274Z,94346.28
2023-05-17T08:14:39.748Z,94347.06
2023-05-17T08:17:06.381Z,94342.19
2023-05-17T08:19:33.350Z,94349.81
2023-05-17T08:22:00.121Z,94348.66
2023-05-17T08:24:26.778Z,94344.72
2023-05-17T08:26:53.530Z,94344.28
2023-05-17T08:29:20.209Z,94349.59
2023-05-17T08:31:46.892Z,94348.50
2023-05-17T08:34:13.724Z,94351.69
2023-05-17T08:36:40.787Z,94357.63
2023-05-17T08:39:08.627Z,94350.66
2023-05-17T08:41:38.466Z,94352.75
2023-05-17T08:44:06.447Z,94355.78
2023-05-17T08:46:35.008Z,94355.63
2023-05-17T08:49:05.102Z,94352.69
2023-05-17T08:51:32.743Z,94356.53
2023-05-17T08:53:59.934Z,94349.25
2023-05-17T08:56:31.090Z,94356.78
2023-05-17T08:58:58.950Z,94362.25
2023-05-17T09:01:27.454Z,94351.25
2023-05-17T09:03:55.403Z,94358.66
2023-05-17T09:06:23.087Z,94356.19
2023-05-17T09:08:56.356Z,94366.41
2023-05-17T09:11:28.735Z,94368.53
2023-05-17T09:14:06.371Z,94358.75
2023-05-17T09:16:37.856Z,94360.50
2023-05-17T09:19:07.142Z,94361.50
2023-05-17T09:21:34.284Z,94362.34
2023-05-17T09:26:42.334Z,94358.34
2023-05-17T09:29:16.577Z,94357.63
2023-05-17T09:31:44.258Z,94350.69
2023-05-17T09:34:11.682Z,94358.19
2023-05-17T09:36:42.544Z,94355.22
2023-05-17T09:39:12.668Z,94349.66
2023-05-17T09:41:43.466Z,94349.69
2023-05-17T09:44:11.641Z,94355.81
2023-05-17T09:46:42.362Z,94351.88
2023-05-17T09:49:09.385Z,94361.47
2023-05-17T09:51:55.179Z,94363.59
2023-05-17T09:54:21.944Z,94354.69
2023-05-17T09:57:07.628Z,94364.94
2023-05-17T09:59:34.347Z,94362.69
2023-05-17T10:02:02.515Z,94360.59
2023-05-17T10:04:32.197Z,94353.84
2023-05-17T10:07:01.151Z,94363.88
2023-05-17T10:09:34.447Z,94369.88
2023-05-17T10:12:03.194Z,94375.47
2023-05-17T10:14:33.744Z,94379.66
2023-05-17T10:17:03.202Z,94374.72
2023-05-17T10:19:31.328Z,94375.19
2023-05-17T10:22:05.209Z,94372.50
2023-05-17T10:24:46.569Z,94380.63
2023-05-17T10:27:13.495Z,94364.88
2023-05-17T10:29:41.669Z,94371.41
2023-05-17T10:32:09.249Z,94369.06
2023-05-17T10:34:39.226Z,94371.28
2023-05-17T10:37:06.714Z,94374.41
2023-05-17T10:39:34.919Z,94372.25
2023-05-17T10:42:14.349Z,94373.88
2023-05-17T10:44:43.006Z,94372.91
2023-05-17T10:47:11.624Z,94380.16
2023-05-17T10:49:45.123Z,94379.53
2023-05-17T10:52:17.107Z,94371.97
2023-05-17T10:54:47.640Z,94364.09
2023-05-17T11:00:09.143Z,94357.25
2023-05-17T11:02:40.627Z,94363.19
2023-05-17T11:05:07.905Z,94362.47
2023-05-17T11:07:37.302Z,94354.09
2023-05-17T11:10:11.159Z,94364.38
2023-05-17T11:12:55.392Z,94354.06
2023-05-17T11:15:26.510Z,94351.28
2023-05-17T11:17:54.232Z,94346.41
2023-05-17T11:20:24.266Z,94345.25
2023-05-17T11:23:02.283Z,94356.53
2023-05-17T11:25:35.830Z,94349.31
2023-05-17T11:28:17.736Z,94350.06
2023-05-17T11:30:51.142Z,94338.94
2023-05-17T11:33:32.438Z,94330.97
2023-05-17T11:36:05.271Z,94339.03
2023-05-17T11:38:32.823Z,94333.81
2023-05-17T11:41:26.513Z,94336.25
2023-05-17T11:43:55.361Z,94334.03
2023-05-17T11:46:24.197Z,94335.03
2023-05-17T11:48:53.494Z,94334.88
2023-05-17T11:51:22.826Z,94343.47
2023-05-17T11:53:55.141Z,94329.25
2023-05-17T11:56:29.212Z,94333.91
2023-05-17T11:59:00.088Z,94333.28
2023-05-17T12:01:26.885Z,94330.56
2023-05-17T12:04:00.391Z,94341.75
2023-05-17T12:06:28.819Z,94350.63
2023-05-17T12:08:55.733Z,94340.44
2023-05-17T12:11:22.661Z,94338.66
2023-05-17T12:13:52.082Z,94326.34
2023-05-17T12:16:22.111Z,94325.50
2023-05-17T12:18:50.420Z,94316.31
2023-05-17T12:21:18.454Z,94327.72
2023-05-17T12:23:48.838Z,94325.38
2023-05-17T12:26:22.404Z,94317.59
2023-05-17T12:29:00.013Z,94326.81
2023-05-17T12:31:34.049Z,94317.41
2023-05-17T12:34:02.498Z,94318.69
2023-05-17T12:36:30.307Z,94325.50
2023-05-17T12:38:57.499Z,94325.41
2023-05-17T12:41:28.699Z,94333.97
2023-05-17T12:44:02.987Z,94333.97
2023-05-17T12:46:40.410Z,94323.31
2023-05-17T12:49:08.816Z,94317.69
2023-05-17T12:51:45.923Z,94320.94
2023-05-17T12:54:16.252Z,94318.03
2023-05-17T12:56:46.780Z,94324.00
2023-05-17T12:59:14.368Z,94321.31
2023-05-17T13:01:44.230Z,94331.97
2023-05-17T13:04:11.662Z,94321.44
2023-05-17T13:06:51.646Z,94330.16
2023-05-17T13:09:21.090Z,94330.66
2023-05-17T13:11:51.143Z,94320.28
2023-05-17T13:14:40.667Z,94315.72
2023-05-17T13:17:11.122Z,94309.94
2023-05-17T13:19:38.776Z,94317.84
2023-05-17T13:22:06.807Z,94318.50
2023-05-17T13:24:35.526Z,94321.69
2023-05-17T13:27:02.695Z,94321.78
2023-05-17T13:29:38.717Z,94317.19
2023-05-17T13:32:08.535Z,94316.00
2023-05-17T13:34:36.108Z,94320.25
2023-05-17T13:37:03.085Z,94317.34
2023-05-17T13:39:29.914Z,94318.44
2023-05-17T13:41:56.998Z,94312.53
2023-05-17T13:44:23.817Z,94318.34
2023-05-17T13:46:50.521Z,94308.25
2023-05-17T13:49:18.876Z,94317.63
2023-05-17T13:51:46.193Z,94314.16
2023-05-17T13:54:13.142Z,94316.78
2023-05-17T13:56:40.047Z,94314.50
2023-05-17T13:59:06.826Z,94304.63
2023-05-17T14:01:33.710Z,94311.84
2023-05-17T14:04:00.871Z,94312.16
2023-05-17T14:06:28.275Z,94310.06
2023-05-17T14:08:55.914Z,94310.50
2023-05-17T14:11:22.905Z,94301.59
2023-05-17T14:13:49.707Z,94301.44
2023-05-17T14:16:16.633Z,94312.25
2023-05-17T14:18:43.635Z,94312.28
2023-05-17T14:21:10.557Z,94320.25
2023-05-17T14:23:37.698Z,94316.47
2023-05-17T14:26:07.298Z,94312.84
2023-05-17T14:28:37.840Z,94321.72
2023-05-17T14:31:06.522Z,94318.47
2023-05-17T14:33:33.569Z,94318.84
2023-05-17T14:36:00.432Z,94313.75
2023-05-17T14:38:27.282Z,94312.56
2023-05-17T14:40:54.023Z,94311.34
2023-05-17T14:43:20.966Z,94293.97
2023-05-17T14:45:47.816Z,94302.97
2023-05-17T14:48:14.653Z,94293.38
2023-05-17T14:50:41.578Z,94293.97
2023-05-17T14:53:08.370Z,94300.78
2023-05-17T14:55:35.557Z,94298.66
2023-05-17T14:58:02.671Z,94304.31
2023-05-17T15:00:29.577Z,94302.09
2023-05-17T15:02:56.788Z,94302.97
2023-05-17T15:05:24.123Z,94305.31
2023-05-17T15:07:50.988Z,94299.50
2023-05-17T15:10:17.797Z,94306.38
2023-05-17T15:12:44.561Z,94315.19
2023-05-17T15:15:11.439Z,94311.78
2023-05-17T15:17:38.211Z,94312.66
2023-05-17T15:20:05.730Z,94307.13
2023-05-17T15:22:33.178Z,94307.69
2023-05-17T15:25:00.039Z,94314.47
2023-05-17T15:27:27.387Z,94309.22
2023-05-17T15:29:54.130Z,94306.09
2023-05-17T15:32:21.181Z,94304.19
2023-05-17T15:34:48.167Z,94304.47
2023-05-17T15:37:14.994Z,94302.25
2023-05-17T15:39:41.656Z,94302.91
2023-05-17T15:42:08.476Z,94322.19
2023-05-17T15:44:35.166Z,94322.06
2023-05-17T15:47:03.214Z,94320.91
2023-05-17T15:49:34.353Z,94331.16
2023-05-17T15:52:01.084Z,94322.94
2023-05-17T15:54:27.729Z,94328.84
2023-05-17T15:56:54.494Z,94328.94
2023-05-17T15:59:21.216Z,94333.66
2023-05-17T16:01:47.994Z,94327.47
2023-05-17T16:04:14.900Z,94318.41
2023-05-17T16:06:41.847Z,94322.91
2023-05-17T16:09:08.650Z,94326.91
2023-05-17T16:11:35.468Z,94330.75
2023-05-17T16:14:02.209Z,94337.47
2023-05-17T16:16:28.952Z,94333.06
2023-05-17T16:18:55.947Z,94324.56
2023-05-17T16:21:22.741Z,94326.28
2023-05-17T16:23:49.511Z,94325.47
2023-05-17T16:26:16.224Z,94333.50
2023-05-17T16:28:43.042Z,94335.03
2023-05-17T16:31:10.123Z,94341.53
2023-05-17T16:33:36.994Z,94339.66
2023-05-17T16:36:05.009Z,94338.63
2023-05-17T16:38:31.805Z,94340.78
2023-05-17T16:41:03.154Z,94340.19
2023-05-17T16:43:30.897Z,94339.44
2023-05-17T16:45:57.656Z,94335.38
2023-05-17T16:48:24.563Z,94340.72
2023-05-17T16:50:51.646Z,94343.31
2023-05-17T16:53:18.852Z,94347.25
2023-05-17T16:55:45.697Z,94338.03
2023-05-17T16:58:13.128Z,94343.88
2023-05-17T17:00:39.956Z,94344.44
2023-05-17T17:03:09.183Z,94354.94
2023-05-17T17:05:36.687Z,94341.19
2023-05-17T17:08:03.643Z,94339.16
2023-05-17T17:10:30.848Z,94342.19
2023-05-17T17:12:58.358Z,94347.41
2023-05-17T17:15:25.278Z,94346.13
2023-05-17T17:17:52.407Z,94348.09
2023-05-17T17:20:19.742Z,94348.53
2023-05-17T17:22:46.640Z,94352.38
2023-05-17T17:25:13.383Z,94354.56
2023-05-17T17:27:40.234Z,94352.75
2023-05-17T17:30:07.643Z,94348.50
2023-05-17T17:32:34.523Z,94351.44
2023-05-17T17:35:01.534Z,94351.25
2023-05-17T17:37:28.324Z,94357.97
2023-05-17T17:39:55.015Z,94357.56
2023-05-17T17:42:21.824Z,94355.56
2023-05-17T17:44:48.695Z,94366.09
2023-05-17T17:47:15.509Z,94363.78
2023-05-17T17:49:42.419Z,94361.03
2023-05-17T17:52:09.274Z,94359.50
2023-05-17T17:54:35.985Z,94353.66
2023-05-17T17:57:03.185Z,94352.03
2023-05-17T17:59:30.124Z,94360.63
2023-05-17T18:01:57.051Z,94365.41
2023-05-17T18:04:23.907Z,94366.28
2023-05-17T18:06:50.654Z,94368.28
2023-05-17T18:09:17.443Z,94370.72
2023-05-17T18:11:44.263Z,94370.34
2023-05-17T18:14:11.043Z,94378.97
2023-05-17T18:16:37.965Z,94374.97
2023-05-17T18:19:04.778Z,94376.59
2023-05-17T18:21:31.624Z,94380.53
2023-05-17T18:23:58.578Z,94378.59
2023-05-17T18:26:25.295Z,94379.34
2023-05-17T18:28:52.105Z,94378.97
2023-05-17T18:31:19.027Z,94384.47
2023-05-17T18:33:45.905Z,94382.53
2023-05-17T18:36:12.757Z,94383.72
2023-05-17T18:38:39.563Z,94387.22
2023-05-17T18:41:06.805Z,94394.69
2023-05-17T18:43:33.666Z,94386.09
2023-05-17T18:46:00.566Z,94386.13
2023-05-17T18:48:27.895Z,94395.50
2023-05-17T18:50:55.092Z,94388.47
2023-05-17T18:53:21.835Z,94393.91
2023-05-17T18:55:48.494Z,94394.69
2023-05-17T18:58:15.229Z,94394.28
2023-05-17T19:00:42.029Z,94394.66
2023-05-17T19:03:08.819Z,94395.44
2023-05-17T19:05:35.844Z,94394.25
2023-05-17T19:08:02.610Z,94400.09
2023-05-17T19:10:29.482Z,94404.41
2023-05-17T19:12:56.502Z,94408.31
2023-05-17T19:15:23.193Z,94410.22
2023-05-17T19:17:50.129Z,94419.19
2023-05-17T19:20:17.050Z,94423.50
2023-05-17T19:22:43.765Z,94426.16
2023-05-17T19:25:10.607Z,94427.56
2023-05-17T19:27:37.384Z,94417.50
2023-05-17T19:30:04.846Z,94430.44
2023-05-17T19:32:33.156Z,94436.25
2023-05-17T19:35:01.169Z,94430.38
2023-05-17T19:37:28.621Z,94440.16
2023-05-17T19:39:55.439Z,94438.50
2023-05-17T19:42:22.330Z,94442.78
2023-05-17T19:44:49.020Z,94444.69
2023-05-17T19:47:15.808Z,94437.16
2023-05-17T19:49:43.343Z,94441.09
2023-05-17T19:52:10.315Z,94443.69
2023-05-17T19:54:37.214Z,94439.16
2023-05-17T19:57:04.127Z,94438.69
2023-05-17T19:59:30.837Z,94444.50
2023-05-17T20:01:57.902Z,94455.47
2023-05-17T20:04:24.719Z,94457.44
2023-05-17T20:06:51.916Z,94457.78
2023-05-17T20:09:18.718Z,94456.66
2023-05-17T20:11:45.579Z,94463.25
2023-05-17T20:14:12.488Z,94458.19
2023-05-17T20:16:39.404Z,94459.25
2023-05-17T20:19:06.504Z,94457.78
2023-05-17T20:21:33.620Z,94460.88
2023-05-17T20:24:06.616Z,94463.22
2023-05-17T20:26:37.285Z,94458.09
2023-05-17T20:29:07.187Z,94461.53
2023-05-17T20:31:35.367Z,94464.63
2023-05-17T20:34:03.434Z,94462.19
2023-05-17T20:36:31.339Z,94465.56
2023-05-17T20:38:58.072Z,94465.97
2023-05-17T20:41:24.802Z,94466.34
2023-05-17T20:43:51.960Z,94458.78
2023-05-17T20:46:18.780Z,94456.56
2023-05-17T20:48:48.011Z,94456.50
2023-05-17T20:51:15.732Z,94457.63
2023-05-17T20:53:42.616Z,94450.91
2023-05-17T20:56:09.544Z,94459.84
2023-05-17T20:58:36.643Z,94453.28
2023-05-17T21:01:03.511Z,94452.06
2023-05-17T21:03:34.003Z,94457.91
2023-05-17T21:06:01.847Z,94451.31
2023-05-17T21:08:28.816Z,94453.50
2023-05-17T21:10:56.154Z,94454.81
2023-05-17T21:13:25.718Z,94451.31
2023-05-17T21:15:54.619Z,94444.66
2023-05-17T21:18:22.140Z,94448.06
2023-05-17T21:20:50.447Z,94449.63
2023-05-17T21:23:18.083Z,94438.28
2023-05-17T21:25:44.788Z,94442.66
2023-05-17T21:28:11.642Z,94443.69
2023-05-17T21:30:38.399Z,94448.72
2023-05-17T21:33:05.717Z,94448.03
2023-05-17T21:35:32.849Z,94445.28
2023-05-17T21:37:59.663Z,94445.66
2023-05-17T21:40:26.482Z,94444.00
2023-05-17T21:42:53.295Z,94441.31
2023-05-17T21:45:20.177Z,94442.88
2023-05-17T21:47:47.190Z,94436.59
2023-05-17T21:50:14.021Z,94447.13
2023-05-17T21:52:40.852Z,94433.84
2023-05-17T21:55:08.346Z,94434.63
2023-05-17T21:57:36.541Z,94435.41
2023-05-17T22:00:07.998Z,94426.03
2023-05-17T22:02:35.858Z,94424.16
2023-05-17T22:05:02.861Z,94428.44
2023-05-17T22:07:29.831Z,94430.78
2023-05-17T22:09:58.370Z,94430.34
2023-05-17T22:12:26.295Z,94422.47
2023-05-17T22:14:57.001Z,94420.94
2023-05-17T22:17:42.509Z,94412.72
2023-05-17T22:20:16.863Z,94417.44
2023-05-17T22:22:44.053Z,94417.72
2023-05-17T22:25:10.941Z,94414.69
2023-05-17T22:27:37.638Z,94420.53
2023-05-17T22:30:04.788Z,94413.16
2023-05-17T22:32:31.989Z,94421.63
2023-05-17T22:34:58.682Z,94413.50
2023-05-17T22:37:25.353Z,94422.41
2023-05-17T22:39:52.049Z,94412.63
2023-05-17T22:42:18.801Z,94407.97
2023-05-17T22:44:45.645Z,94404.72
2023-05-17T22:47:14.829Z,94406.72
2023-05-17T22:49:42.256Z,94402.06
2023-05-17T22:52:10.976Z,94400.88
2023-05-17T22:54:38.332Z,94395.47
2023-05-17T22:57:05.938Z,94396.56
2023-05-17T22:59:33.220Z,94392.34
2023-05-17T23:02:00.962Z,94383.75
2023-05-17T23:04:30.180Z,94396.97
2023-05-17T23:07:03.771Z,94393.44
2023-05-17T23:09:30.567Z,94387.56
2023-05-17T23:12:00.346Z,94384.41
2023-05-17T23:14:27.336Z,94386.38
2023-05-17T23:16:54.076Z,94386.06
2023-05-17T23:19:21.142Z,94383.34
2023-05-17T23:21:49.056Z,94380.97
2023-05-17T23:24:15.866Z,94377.03
2023-05-17T23:26:42.514Z,94378.16
2023-05-17T23:29:10.682Z,94369.53
2023-05-17T23:31:37.936Z,94368.34
2023-05-17T23:34:06.838Z,94367.94
2023-05-17T23:36:33.716Z,94369.13
2023-05-17T23:39:00.521Z,94362.56
2023-05-17T23:41:29.314Z,94363.28
2023-05-17T23:43:57.033Z,94355.09
2023-05-17T23:46:23.976Z,94355.13
2023-05-17T23:48:50.873Z,94353.19
2023-05-17T23:51:20.648Z,94341.50
2023-05-17T23:53:50.447Z,94345.03
2023-05-17T23:56:18.259Z,94347.75
2023-05-17T23:58:45.581Z,94345.34
